Time;durP1;ratioP1;P1;durP2;ratioP2;P2;SDS_P1;SDS_P2;PMS_P1;PMS_P2;Temp;Humidity;BMP_temperature;BMP_pressure;BME280_temperature;BME280_humidity;BME280_pressure;Samples;Min_cycle;Max_cycle;Signal;HPM_P1;HPM_P2
2023/06/10 00:01:59;;;;;;;9.68;4.07;;;26.50;44.20;;;;;;5062433;28;20044;-74
2023/06/10 00:04:28;;;;;;;7.13;3.97;;;26.40;44.30;;;;;;5049318;28;20029;-74
2023/06/10 00:06:55;;;;;;;7.03;3.28;;;26.50;44.30;;;;;;5046543;28;20068;-73
2023/06/10 00:09:21;;;;;;;7.43;4.03;;;26.50;44.30;;;;;;5048141;28;20122;-73
2023/06/10 00:11:47;;;;;;;11.18;4.18;;;26.60;44.40;;;;;;5032267;28;20037;-73
2023/06/10 00:14:13;;;;;;;12.48;3.78;;;26.50;44.40;;;;;;5042544;28;20029;-73
2023/06/10 00:16:40;;;;;;;8.15;4.00;;;26.60;44.40;;;;;;5062946;28;20387;-72
2023/06/10 00:19:06;;;;;;;7.60;4.10;;;26.60;44.40;;;;;;5070706;28;20055;-73
2023/06/10 00:21:44;;;;;;;4.95;3.88;;;26.60;44.50;;;;;;5069973;28;20079;-74
2023/06/10 00:24:11;;;;;;;5.95;3.65;;;26.60;44.50;;;;;;5014462;28;20179;-74
2023/06/10 00:26:41;;;;;;;10.40;3.72;;;26.50;44.60;;;;;;5036612;28;20045;-73
2023/06/10 00:29:08;;;;;;;6.72;4.05;;;26.70;44.60;;;;;;5042633;28;20033;-73
2023/06/10 00:31:35;;;;;;;7.22;4.25;;;26.50;44.60;;;;;;5049643;28;20039;-73
2023/06/10 00:34:02;;;;;;;10.45;4.47;;;26.70;44.60;;;;;;5071803;28;20115;-74
2023/06/10 00:36:28;;;;;;;11.40;4.10;;;26.70;44.70;;;;;;5068010;28;20407;-73
2023/06/10 00:38:56;;;;;;;6.55;4.47;;;26.60;44.70;;;;;;5072254;28;20465;-74
2023/06/10 00:41:22;;;;;;;8.77;4.25;;;26.60;44.70;;;;;;5064190;28;20442;-73
2023/06/10 00:43:50;;;;;;;5.63;4.55;;;26.70;44.70;;;;;;5059769;28;20032;-73
2023/06/10 00:46:16;;;;;;;9.93;4.15;;;26.70;44.70;;;;;;5057758;28;20186;-74
2023/06/10 00:48:44;;;;;;;9.40;4.03;;;26.60;44.80;;;;;;5054178;28;20041;-74
2023/06/10 00:51:11;;;;;;;5.68;3.78;;;26.70;44.80;;;;;;5031767;28;20037;-74
2023/06/10 00:53:40;;;;;;;11.82;4.28;;;26.70;44.80;;;;;;5031850;28;20037;-73
2023/06/10 00:56:07;;;;;;;8.93;3.95;;;26.60;44.90;;;;;;5040804;28;20392;-74
2023/06/10 00:58:35;;;;;;;8.95;4.18;;;26.70;44.90;;;;;;5063881;28;20032;-73
2023/06/10 01:01:01;;;;;;;6.40;4.25;;;26.70;44.90;;;;;;5046983;28;20032;-74
2023/06/10 01:03:28;;;;;;;7.78;4.00;;;26.70;45.00;;;;;;5051261;28;20478;-74
2023/06/10 01:06:14;;;;;;;8.35;4.05;;;26.70;45.00;;;;;;5050644;28;20044;-73
2023/06/10 01:08:57;;;;;;;9.68;3.92;;;26.60;45.00;;;;;;5031856;28;20458;-73
2023/06/10 01:11:28;;;;;;;15.18;4.68;;;26.70;45.00;;;;;;5064968;28;20446;-74
2023/06/10 01:13:56;;;;;;;6.15;4.22;;;26.70;45.00;;;;;;5045800;28;20028;-73
2023/06/10 01:16:23;;;;;;;11.40;4.45;;;26.70;45.00;;;;;;5067852;28;20037;-74
2023/06/10 01:18:52;;;;;;;8.20;4.40;;;26.70;45.10;;;;;;5073858;28;20659;-73
2023/06/10 01:21:24;;;;;;;11.13;4.60;;;26.70;45.10;;;;;;5075814;28;20060;-73
2023/06/10 01:23:52;;;;;;;8.02;4.85;;;26.70;45.10;;;;;;5038847;28;20061;-73
2023/06/10 01:26:22;;;;;;;6.15;4.13;;;26.80;45.10;;;;;;5034106;28;20473;-74
2023/06/10 01:29:07;;;;;;;17.38;4.13;;;26.70;45.10;;;;;;5048383;28;20502;-74
2023/06/10 01:31:45;;;;;;;8.88;4.53;;;26.70;45.20;;;;;;5052160;28;20551;-73
2023/06/10 01:34:16;;;;;;;7.10;4.53;;;26.60;45.20;;;;;;5054911;28;20423;-74
2023/06/10 01:36:47;;;;;;;10.88;4.47;;;26.60;45.20;;;;;;5047040;28;20038;-74
2023/06/10 01:39:17;;;;;;;7.03;4.50;;;26.60;45.20;;;;;;5036046;28;20041;-74
2023/06/10 01:41:43;;;;;;;9.55;4.88;;;26.50;45.20;;;;;;5061727;28;20038;-74
2023/06/10 01:44:10;;;;;;;7.93;4.40;;;26.60;45.30;;;;;;5046043;28;20052;-74
2023/06/10 01:46:36;;;;;;;9.32;4.07;;;26.50;45.30;;;;;;5033845;28;20139;-74
2023/06/10 01:49:02;;;;;;;6.38;4.05;;;26.70;45.40;;;;;;5043327;28;20611;-73
2023/06/10 01:51:29;;;;;;;10.25;4.25;;;26.60;45.50;;;;;;5035229;28;20101;-74
2023/06/10 01:53:55;;;;;;;9.60;4.35;;;26.60;45.50;;;;;;5033984;28;20037;-73
2023/06/10 01:56:21;;;;;;;8.55;4.22;;;26.60;45.50;;;;;;5035020;28;20152;-73
2023/06/10 01:58:47;;;;;;;10.02;4.40;;;26.60;45.50;;;;;;5052077;28;20088;-73
2023/06/10 02:01:14;;;;;;;14.23;4.57;;;26.70;45.50;;;;;;5025894;28;20079;-73
2023/06/10 02:03:40;;;;;;;7.07;3.92;;;26.70;45.60;;;;;;5071843;28;20079;-73
2023/06/10 02:06:06;;;;;;;11.43;4.68;;;26.60;45.60;;;;;;5069510;28;20049;-74
2023/06/10 02:08:32;;;;;;;14.63;4.25;;;26.60;45.60;;;;;;5055251;28;20056;-74
2023/06/10 02:11:00;;;;;;;7.32;4.10;;;26.60;45.60;;;;;;5041148;28;20029;-74
2023/06/10 02:13:28;;;;;;;10.45;4.78;;;26.70;45.60;;;;;;5037409;28;20119;-74
2023/06/10 02:15:54;;;;;;;9.57;4.43;;;26.60;45.70;;;;;;5050958;28;20026;-74
2023/06/10 02:18:20;;;;;;;6.90;4.70;;;26.70;45.70;;;;;;5033513;28;20084;-74
2023/06/10 02:20:46;;;;;;;8.15;4.22;;;26.60;45.70;;;;;;5033024;28;20935;-74
2023/06/10 02:23:12;;;;;;;5.70;4.32;;;26.60;45.70;;;;;;5035183;28;20079;-73
2023/06/10 02:25:38;;;;;;;9.80;4.55;;;26.60;45.80;;;;;;5044453;28;20122;-74
2023/06/10 02:28:04;;;;;;;7.88;4.68;;;26.50;45.80;;;;;;5068141;28;20049;-73
2023/06/10 02:30:31;;;;;;;16.17;5.35;;;26.60;45.80;;;;;;5064228;28;20048;-74
2023/06/10 02:32:57;;;;;;;9.25;4.38;;;26.50;45.80;;;;;;5055199;28;20123;-74
2023/06/10 02:35:24;;;;;;;7.50;4.20;;;26.70;45.80;;;;;;5064923;28;20124;-74
2023/06/10 02:37:52;;;;;;;9.52;4.43;;;26.50;45.80;;;;;;5071161;28;20037;-73
2023/06/10 02:40:19;;;;;;;9.27;4.72;;;26.50;45.90;;;;;;5051339;28;20120;-74
2023/06/10 02:42:45;;;;;;;7.43;4.85;;;26.50;45.90;;;;;;5032683;28;20037;-74
2023/06/10 02:45:11;;;;;;;13.45;4.65;;;26.40;46.00;;;;;;5046778;28;20029;-74
2023/06/10 02:47:41;;;;;;;12.27;5.13;;;26.60;46.00;;;;;;5052390;28;20044;-74
2023/06/10 02:50:09;;;;;;;12.93;5.10;;;26.40;46.10;;;;;;5052595;28;20029;-74
2023/06/10 02:52:42;;;;;;;8.85;4.30;;;26.60;46.10;;;;;;5070029;28;20086;-74
2023/06/10 02:55:09;;;;;;;12.15;4.97;;;26.60;46.10;;;;;;5032476;28;20029;-74
2023/06/10 02:57:36;;;;;;;12.20;4.38;;;26.50;46.10;;;;;;5015750;28;20034;-74
2023/06/10 03:00:09;;;;;;;9.63;4.20;;;26.50;46.20;;;;;;5032322;28;20043;-74
2023/06/10 03:02:37;;;;;;;9.68;4.50;;;26.60;46.20;;;;;;5070843;28;20555;-73
2023/06/10 03:05:04;;;;;;;8.30;4.22;;;26.50;46.20;;;;;;5072347;28;20044;-74
2023/06/10 03:07:32;;;;;;;10.98;4.63;;;26.50;46.20;;;;;;5069387;28;20044;-74
2023/06/10 03:10:00;;;;;;;11.02;4.38;;;26.50;46.30;;;;;;5061312;28;20028;-74
2023/06/10 03:12:26;;;;;;;8.35;5.10;;;26.60;46.30;;;;;;5066201;28;20370;-74
2023/06/10 03:14:52;;;;;;;6.50;4.53;;;26.50;46.30;;;;;;5069188;28;20030;-74
2023/06/10 03:17:18;;;;;;;6.85;4.60;;;26.50;46.30;;;;;;5067782;28;20085;-74
2023/06/10 03:19:45;;;;;;;10.63;5.53;;;26.50;46.30;;;;;;5070638;28;20033;-74
2023/06/10 03:22:16;;;;;;;12.18;4.90;;;26.60;46.30;;;;;;5072087;28;20043;-74
2023/06/10 03:24:50;;;;;;;12.38;5.00;;;26.50;46.30;;;;;;5071718;28;20040;-74
2023/06/10 03:27:16;;;;;;;6.30;4.72;;;26.60;46.30;;;;;;5041932;28;20438;-75
2023/06/10 03:29:46;;;;;;;7.65;4.55;;;26.40;46.40;;;;;;5048153;28;20024;-74
2023/06/10 03:32:12;;;;;;;9.05;4.53;;;26.40;46.30;;;;;;5068482;28;20488;-74
2023/06/10 03:34:41;;;;;;;12.90;5.00;;;26.50;46.40;;;;;;5068614;28;20488;-74
2023/06/10 03:37:07;;;;;;;10.55;4.30;;;26.40;46.40;;;;;;5067132;28;20063;-74
2023/06/10 03:39:33;;;;;;;8.18;4.78;;;26.40;46.40;;;;;;5065249;28;20021;-73
2023/06/10 03:42:00;;;;;;;9.43;5.22;;;26.50;46.50;;;;;;5064497;28;20028;-74
2023/06/10 03:44:28;;;;;;;15.25;5.25;;;26.50;46.50;;;;;;5084429;28;20048;-74
2023/06/10 03:46:56;;;;;;;9.85;5.25;;;26.50;46.60;;;;;;5059239;28;20056;-74
2023/06/10 03:49:25;;;;;;;10.10;5.03;;;26.40;46.60;;;;;;5051624;28;20029;-74
2023/06/10 03:51:52;;;;;;;12.02;5.43;;;26.40;46.60;;;;;;5067264;28;20455;-73
2023/06/10 03:54:18;;;;;;;12.45;5.38;;;26.50;46.70;;;;;;5033497;28;20041;-74
2023/06/10 03:56:44;;;;;;;10.98;5.10;;;26.50;46.70;;;;;;5055460;28;20055;-74
2023/06/10 03:59:10;;;;;;;14.65;5.07;;;26.50;46.70;;;;;;5071071;28;20372;-74
2023/06/10 04:01:37;;;;;;;11.73;6.18;;;26.50;46.70;;;;;;5056276;28;20029;-74
2023/06/10 04:04:03;;;;;;;12.95;5.65;;;26.70;46.60;;;;;;5050146;28;20760;-74
2023/06/10 04:06:33;;;;;;;12.63;5.20;;;26.40;46.70;;;;;;5069547;28;20111;-73
2023/06/10 04:08:59;;;;;;;12.75;5.78;;;26.60;46.70;;;;;;5067751;28;20158;-74
2023/06/10 04:11:27;;;;;;;14.15;4.97;;;26.60;46.70;;;;;;5070409;28;20027;-74
2023/06/10 04:13:54;;;;;;;8.52;5.03;;;26.50;46.70;;;;;;5054165;28;20032;-74
2023/06/10 04:16:21;;;;;;;7.55;4.32;;;26.50;46.70;;;;;;5066797;28;20040;-74
2023/06/10 04:18:48;;;;;;;8.15;5.35;;;26.40;46.70;;;;;;5051299;28;20037;-74
2023/06/10 04:21:15;;;;;;;14.70;6.03;;;26.50;46.70;;;;;;5046349;28;20103;-74
2023/06/10 04:23:40;;;;;;;8.00;5.43;;;26.50;46.70;;;;;;5030510;28;20049;-73
2023/06/10 04:26:12;;;;;;;12.32;5.38;;;26.50;46.70;;;;;;5060717;28;20024;-74
2023/06/10 04:28:38;;;;;;;11.10;5.35;;;26.40;46.70;;;;;;5068110;28;20037;-74
2023/06/10 04:31:04;;;;;;;9.27;5.55;;;26.50;46.70;;;;;;5020937;28;20044;-74
2023/06/10 04:33:31;;;;;;;16.23;6.03;;;26.30;46.80;;;;;;5051681;28;20037;-74
2023/06/10 04:35:58;;;;;;;9.23;5.18;;;26.50;46.90;;;;;;5026049;28;20108;-74
2023/06/10 04:38:27;;;;;;;12.07;5.03;;;26.40;46.90;;;;;;5030683;28;20029;-74
2023/06/10 04:40:53;;;;;;;9.65;4.70;;;26.40;46.90;;;;;;5056105;28;20507;-74
2023/06/10 04:43:21;;;;;;;6.15;4.38;;;26.50;47.10;;;;;;5029877;28;20045;-74
2023/06/10 04:45:48;;;;;;;7.43;4.57;;;26.50;47.10;;;;;;5042157;28;20031;-74
2023/06/10 04:48:13;;;;;;;8.82;4.22;;;26.50;47.00;;;;;;5030390;28;20047;-74
2023/06/10 04:50:39;;;;;;;8.55;4.30;;;26.60;47.10;;;;;;5036275;28;20034;-74
2023/06/10 04:53:09;;;;;;;7.95;4.30;;;26.50;47.10;;;;;;5031546;28;20073;-73
2023/06/10 04:55:37;;;;;;;9.00;3.80;;;26.40;47.10;;;;;;5068685;28;20052;-74
2023/06/10 04:58:03;;;;;;;10.85;3.70;;;26.50;47.10;;;;;;5087207;28;20036;-74
2023/06/10 05:00:29;;;;;;;7.55;4.07;;;26.60;47.10;;;;;;5083252;28;20041;-74
2023/06/10 05:02:55;;;;;;;7.85;3.83;;;26.60;47.10;;;;;;5072125;28;20119;-74
2023/06/10 05:05:22;;;;;;;10.55;4.43;;;26.60;47.00;;;;;;5032588;28;20098;-74
2023/06/10 05:07:48;;;;;;;5.15;3.35;;;26.60;47.00;;;;;;5086917;28;20135;-74
2023/06/10 05:10:14;;;;;;;4.38;3.42;;;26.50;47.10;;;;;;5084124;28;20040;-74
2023/06/10 05:12:40;;;;;;;4.78;3.08;;;26.40;47.10;;;;;;5072763;28;20031;-74
2023/06/10 05:15:07;;;;;;;6.57;3.83;;;26.50;47.10;;;;;;5086066;28;20064;-73
2023/06/10 05:17:34;;;;;;;5.28;3.13;;;26.40;47.10;;;;;;5049183;28;20132;-74
2023/06/10 05:20:02;;;;;;;8.70;4.00;;;26.50;47.10;;;;;;5048906;28;20049;-73
2023/06/10 05:22:28;;;;;;;12.77;3.90;;;26.40;47.10;;;;;;5025918;28;20072;-74
2023/06/10 05:24:53;;;;;;;7.63;4.05;;;26.50;47.10;;;;;;5011183;28;20033;-74
2023/06/10 05:27:21;;;;;;;9.73;3.42;;;26.50;47.20;;;;;;5043780;28;20138;-74
2023/06/10 05:29:47;;;;;;;9.48;4.78;;;26.40;47.20;;;;;;4996198;28;20046;-74
2023/06/10 05:32:13;;;;;;;10.43;3.88;;;26.50;47.30;;;;;;5005808;28;20053;-74
2023/06/10 05:34:39;;;;;;;3.08;2.30;;;26.40;47.30;;;;;;5009142;28;20130;-74
2023/06/10 05:37:05;;;;;;;5.22;3.67;;;26.40;47.30;;;;;;5002878;28;20191;-74
2023/06/10 05:39:31;;;;;;;11.95;4.07;;;26.30;47.40;;;;;;5004104;28;20590;-74
2023/06/10 05:41:59;;;;;;;8.60;4.88;;;26.50;47.40;;;;;;4992676;28;20076;-74
2023/06/10 05:44:25;;;;;;;3.95;3.55;;;26.50;47.40;;;;;;5004491;28;20077;-74
2023/06/10 05:46:51;;;;;;;9.82;4.82;;;26.50;47.40;;;;;;5007255;28;20082;-74
2023/06/10 05:49:17;;;;;;;5.95;4.10;;;26.50;47.40;;;;;;4992720;28;20057;-74
2023/06/10 05:51:43;;;;;;;5.57;4.20;;;26.50;47.40;;;;;;4979841;28;20109;-74
2023/06/10 05:54:09;;;;;;;4.45;2.50;;;26.60;47.40;;;;;;5040280;28;20204;-74
2023/06/10 05:56:35;;;;;;;10.27;4.93;;;26.40;47.40;;;;;;5016239;28;20199;-74
2023/06/10 05:59:01;;;;;;;6.20;3.83;;;26.50;47.40;;;;;;5009180;28;20037;-74
2023/06/10 06:01:27;;;;;;;7.13;3.75;;;26.50;47.40;;;;;;5023648;28;20045;-74
2023/06/10 06:03:53;;;;;;;7.18;4.35;;;26.50;47.40;;;;;;5041755;28;20025;-75
2023/06/10 06:06:20;;;;;;;8.18;3.47;;;26.40;47.40;;;;;;5044562;28;20153;-74
2023/06/10 06:08:46;;;;;;;12.50;5.05;;;26.50;47.40;;;;;;5044664;28;20045;-73
2023/06/10 06:11:13;;;;;;;7.38;4.05;;;26.30;47.40;;;;;;5039571;28;20133;-73
2023/06/10 06:13:39;;;;;;;13.32;4.50;;;26.40;47.40;;;;;;5035709;28;20037;-74
2023/06/10 06:16:05;;;;;;;7.10;4.32;;;26.50;47.50;;;;;;5052338;28;20448;-74
2023/06/10 06:18:31;;;;;;;7.05;4.32;;;26.40;47.50;;;;;;5052346;28;20045;-74
2023/06/10 06:20:57;;;;;;;4.22;2.50;;;26.30;47.60;;;;;;5051568;28;20052;-74
2023/06/10 06:23:23;;;;;;;3.40;2.25;;;26.30;47.60;;;;;;5037818;28;20050;-74
2023/06/10 06:25:49;;;;;;;8.55;3.80;;;26.40;47.70;;;;;;5032060;28;20501;-74
2023/06/10 06:28:15;;;;;;;7.90;4.25;;;26.30;47.70;;;;;;5054033;28;20044;-74
2023/06/10 06:30:41;;;;;;;9.07;4.70;;;26.40;47.70;;;;;;5074489;28;20021;-74
2023/06/10 06:33:07;;;;;;;9.15;3.60;;;26.50;47.70;;;;;;5074150;28;20590;-74
2023/06/10 06:35:34;;;;;;;6.93;3.03;;;26.50;47.70;;;;;;5023889;28;20076;-74
2023/06/10 06:38:00;;;;;;;11.13;3.22;;;26.50;47.70;;;;;;5044874;28;20492;-75
2023/06/10 06:40:28;;;;;;;2.97;2.55;;;26.50;47.80;;;;;;5061380;28;20063;-74
2023/06/10 06:42:54;;;;;;;6.13;3.03;;;26.40;47.70;;;;;;5070386;28;20162;-74
2023/06/10 06:45:57;;;;;;;3.33;2.78;;;26.60;47.80;;;;;;5081441;28;20036;-74
2023/06/10 06:48:23;;;;;;;1.48;1.35;;;26.50;47.70;;;;;;5071520;28;20075;-74
2023/06/10 06:50:49;;;;;;;1.05;0.80;;;26.50;47.80;;;;;;5071166;28;20047;-73
2023/06/10 06:53:15;;;;;;;0.60;0.60;;;26.40;47.80;;;;;;5069392;28;20044;-74
2023/06/10 06:55:41;;;;;;;1.85;0.60;;;26.60;47.80;;;;;;5050454;28;20365;-73
2023/06/10 06:58:07;;;;;;;5.05;3.40;;;26.40;47.80;;;;;;5066175;28;20057;-74
2023/06/10 07:00:33;;;;;;;0.88;0.88;;;26.30;47.90;;;;;;5068358;28;20197;-82
2023/06/10 07:02:59;;;;;;;2.58;1.60;;;26.40;47.70;;;;;;5071505;28;20183;-77
2023/06/10 07:05:27;;;;;;;4.43;2.95;;;26.50;48.90;;;;;;5051778;28;20079;-78
2023/06/10 07:07:57;;;;;;;7.93;3.65;;;26.60;47.40;;;;;;5012418;28;20073;-80
2023/06/10 07:10:30;;;;;;;5.60;3.58;;;26.50;47.00;;;;;;5013278;28;20421;-79
2023/06/10 07:12:56;;;;;;;4.95;3.70;;;26.40;46.70;;;;;;4996104;28;20520;-80
2023/06/10 07:15:53;;;;;;;10.40;4.43;;;26.40;46.80;;;;;;4995779;28;20133;-77
2023/06/10 07:18:20;;;;;;;7.43;4.65;;;26.50;47.80;;;;;;5011920;28;20124;-78
2023/06/10 07:20:46;;;;;;;9.82;5.88;;;26.60;48.60;;;;;;4994848;28;20042;-75
2023/06/10 07:23:14;;;;;;;10.25;4.57;;;26.70;47.40;;;;;;4992321;28;20482;-74
2023/06/10 07:25:41;;;;;;;7.28;3.90;;;26.70;47.60;;;;;;4992151;28;20445;-78
2023/06/10 07:28:09;;;;;;;6.53;4.25;;;26.70;47.10;;;;;;4976648;28;20534;-76
2023/06/10 07:30:38;;;;;;;6.03;4.10;;;26.80;48.00;;;;;;4991915;28;20049;-76
2023/06/10 07:33:07;;;;;;;6.57;4.10;;;26.80;48.00;;;;;;4991712;28;20145;-75
2023/06/10 07:35:33;;;;;;;8.60;4.85;;;26.80;47.60;;;;;;5005956;28;20121;-74
2023/06/10 07:37:59;;;;;;;4.80;3.83;;;26.80;47.40;;;;;;5008502;28;20034;-75
2023/06/10 07:40:25;;;;;;;6.93;3.95;;;26.80;46.70;;;;;;5053756;28;20366;-75
2023/06/10 07:42:52;;;;;;;8.23;4.32;;;26.80;47.40;;;;;;5062839;28;20036;-76
2023/06/10 07:45:18;;;;;;;5.15;3.40;;;26.90;47.00;;;;;;5065555;28;20458;-73
2023/06/10 07:47:45;;;;;;;8.45;4.00;;;26.80;47.90;;;;;;5059949;28;20068;-76
2023/06/10 07:50:11;;;;;;;8.35;4.25;;;26.80;47.00;;;;;;5058831;28;20127;-75
2023/06/10 07:52:37;;;;;;;7.88;4.30;;;26.80;46.90;;;;;;5070178;28;20563;-74
2023/06/10 07:55:04;;;;;;;8.07;4.40;;;26.80;46.90;;;;;;5088264;28;20131;-76
2023/06/10 07:57:34;;;;;;;8.27;3.63;;;26.80;46.90;;;;;;5090577;28;20044;-75
2023/06/10 08:00:02;;;;;;;6.07;3.88;;;26.90;46.70;;;;;;5090429;28;20044;-77
2023/06/10 08:02:39;;;;;;;10.57;4.28;;;26.90;46.70;;;;;;5090568;28;20531;-78
2023/06/10 08:05:05;;;;;;;4.78;3.42;;;26.90;46.60;;;;;;5042130;28;20120;-76
2023/06/10 08:07:31;;;;;;;5.82;3.63;;;27.10;47.50;;;;;;5029870;28;20049;-76
2023/06/10 08:09:57;;;;;;;5.65;4.15;;;27.00;47.40;;;;;;5030057;28;20046;-75
2023/06/10 08:12:23;;;;;;;7.20;3.97;;;27.00;47.30;;;;;;5030097;28;20044;-75
2023/06/10 08:14:49;;;;;;;5.30;3.65;;;27.10;47.30;;;;;;5013851;28;20785;-74
2023/06/10 08:17:15;;;;;;;6.82;3.83;;;27.20;47.40;;;;;;5030178;28;20041;-75
2023/06/10 08:19:41;;;;;;;4.90;2.95;;;27.10;47.50;;;;;;5012954;28;20045;-75
2023/06/10 08:22:07;;;;;;;10.38;6.53;;;27.10;47.60;;;;;;5029518;28;20482;-74
2023/06/10 08:24:33;;;;;;;6.65;4.88;;;27.10;47.70;;;;;;5013431;28;20076;-75
2023/06/10 08:26:59;;;;;;;13.88;8.82;;;27.00;47.90;;;;;;5029053;28;20061;-76
2023/06/10 08:29:25;;;;;;;11.32;5.28;;;27.20;48.00;;;;;;5029597;28;20554;-75
2023/06/10 08:31:51;;;;;;;23.20;12.55;;;27.10;48.20;;;;;;5014482;28;20129;-74
2023/06/10 08:34:26;;;;;;;13.40;5.93;;;27.30;49.10;;;;;;5034998;28;20033;-75
2023/06/10 08:36:55;;;;;;;8.90;4.35;;;27.20;49.50;;;;;;5027327;28;20152;-76
2023/06/10 08:39:22;;;;;;;11.55;7.30;;;27.20;49.30;;;;;;5022193;28;20041;-74
2023/06/10 08:42:17;;;;;;;7.93;4.78;;;27.20;49.50;;;;;;5032975;28;20477;-77
2023/06/10 08:44:45;;;;;;;98.28;59.47;;;27.10;49.10;;;;;;5051027;28;20094;-77
2023/06/10 08:47:16;;;;;;;8.50;6.05;;;27.00;51.60;;;;;;5050971;28;20025;-77
2023/06/10 08:49:46;;;;;;;7.68;5.13;;;27.40;59.20;;;;;;5052179;28;20037;-77
2023/06/10 08:52:21;;;;;;;12.00;4.97;;;27.40;56.50;;;;;;5052006;28;20040;-78
2023/06/10 08:55:25;;;;;;;6.07;3.50;;;27.40;55.50;;;;;;5051710;28;20035;-73
2023/06/10 08:57:52;;;;;;;7.13;3.97;;;27.40;53.90;;;;;;5029034;28;20037;-75
2023/06/10 09:00:19;;;;;;;4.47;3.70;;;27.30;52.70;;;;;;5012721;28;20570;-76
2023/06/10 09:02:46;;;;;;;5.60;3.80;;;27.30;52.90;;;;;;5028886;28;20068;-75
2023/06/10 09:05:15;;;;;;;4.70;3.83;;;27.40;52.90;;;;;;5029243;28;20049;-74
2023/06/10 09:07:42;;;;;;;8.20;4.13;;;27.40;52.10;;;;;;5028738;28;20038;-74
2023/06/10 09:10:08;;;;;;;7.93;4.10;;;27.40;51.60;;;;;;5028621;28;20045;-74
2023/06/10 09:12:35;;;;;;;6.45;3.85;;;27.30;50.90;;;;;;5028719;28;20079;-76
2023/06/10 09:15:01;;;;;;;5.28;3.97;;;27.30;50.60;;;;;;5012086;28;20041;-77
2023/06/10 09:17:28;;;;;;;5.32;3.78;;;27.30;50.20;;;;;;5025421;28;20116;-73
2023/06/10 09:19:55;;;;;;;6.70;4.10;;;27.30;49.90;;;;;;5028346;28;20045;-71
2023/06/10 09:22:22;;;;;;;6.85;3.78;;;27.40;49.60;;;;;;5028566;28;20045;-72
2023/06/10 09:24:48;;;;;;;5.18;3.45;;;27.40;49.40;;;;;;5028318;28;20033;-71
2023/06/10 09:27:15;;;;;;;5.53;3.63;;;27.30;49.20;;;;;;5029572;28;20041;-78
2023/06/10 09:29:53;;;;;;;9.52;3.55;;;27.40;49.00;;;;;;5013499;28;20383;-76
2023/06/10 09:32:20;;;;;;;7.40;3.42;;;27.40;48.90;;;;;;5007319;28;20374;-77
2023/06/10 09:34:47;;;;;;;5.05;3.90;;;27.30;48.80;;;;;;5042609;28;20040;-76
2023/06/10 09:37:13;;;;;;;5.25;3.53;;;27.40;48.90;;;;;;5051380;28;20103;-75
2023/06/10 09:39:42;;;;;;;5.18;3.33;;;27.40;48.90;;;;;;5054026;28;20033;-75
2023/06/10 09:42:18;;;;;;;4.93;3.13;;;27.50;49.10;;;;;;5051705;28;20553;-74
2023/06/10 09:44:53;;;;;;;7.38;3.95;;;27.30;48.80;;;;;;5054287;28;20400;-74
2023/06/10 09:47:22;;;;;;;3.90;3.20;;;27.30;48.70;;;;;;5054484;28;20147;-75
2023/06/10 09:49:50;;;;;;;6.68;3.50;;;27.50;48.70;;;;;;5052234;28;20493;-74
2023/06/10 09:52:36;;;;;;;5.95;3.53;;;27.40;48.80;;;;;;5035455;28;20136;-76
2023/06/10 09:55:03;;;;;;;7.15;3.92;;;27.40;48.80;;;;;;5054907;28;20055;-75
2023/06/10 09:57:35;;;;;;;7.65;3.20;;;27.40;49.10;;;;;;5053411;28;20439;-75
2023/06/10 10:00:12;;;;;;;4.32;2.70;;;27.30;49.10;;;;;;5055162;28;20047;-76
2023/06/10 10:02:47;;;;;;;4.35;3.67;;;27.40;48.70;;;;;;5069496;28;20483;-75
2023/06/10 10:05:16;;;;;;;5.65;3.53;;;27.30;48.30;;;;;;5065194;28;20075;-76
2023/06/10 10:07:44;;;;;;;6.75;3.00;;;27.40;48.60;;;;;;5059599;28;20047;-76
2023/06/10 10:10:11;;;;;;;4.90;3.75;;;27.40;48.70;;;;;;5066201;28;20087;-76
2023/06/10 10:12:41;;;;;;;4.30;3.20;;;27.40;48.50;;;;;;5071324;28;20048;-76
2023/06/10 10:15:09;;;;;;;5.03;2.72;;;27.30;48.40;;;;;;5050927;28;20068;-75
2023/06/10 10:17:55;;;;;;;4.53;3.22;;;27.40;48.40;;;;;;5055779;28;20380;-76
2023/06/10 10:20:27;;;;;;;5.97;3.58;;;27.50;48.30;;;;;;5049419;28;20528;-76
2023/06/10 10:22:56;;;;;;;7.88;3.33;;;27.40;48.40;;;;;;5052168;28;20051;-76
2023/06/10 10:25:35;;;;;;;7.03;3.05;;;27.30;48.50;;;;;;5052839;28;20036;-76
2023/06/10 10:28:01;;;;;;;4.25;3.13;;;27.40;48.60;;;;;;5053888;28;20021;-76
2023/06/10 10:30:34;;;;;;;4.18;3.13;;;27.40;48.60;;;;;;5053932;28;20037;-76
2023/06/10 10:33:03;;;;;;;;;;;27.20;48.60;;;;;;5054210;28;20180;-76
2023/06/10 10:35:32;;;;;;;3.55;2.97;;;27.40;48.60;;;;;;5053817;28;19909;-76
2023/06/10 10:37:58;;;;;;;2.67;2.47;;;27.30;48.60;;;;;;5054157;28;20037;-76
2023/06/10 10:40:29;;;;;;;5.93;2.92;;;27.30;48.50;;;;;;5053499;28;20054;-76
2023/06/10 10:42:56;;;;;;;6.40;3.30;;;27.40;48.30;;;;;;5053485;28;20060;-76
2023/06/10 10:45:23;;;;;;;3.45;2.53;;;27.10;48.40;;;;;;5053500;28;20075;-76
2023/06/10 10:47:53;;;;;;;2.83;2.60;;;27.20;48.60;;;;;;5054269;28;20036;-76
2023/06/10 10:50:20;;;;;;;4.20;2.80;;;27.20;48.50;;;;;;5052875;28;20124;-76
2023/06/10 10:53:07;;;;;;;3.88;2.80;;;27.20;48.40;;;;;;5053808;28;20036;-76
2023/06/10 10:55:36;;;;;;;5.03;3.08;;;27.20;48.40;;;;;;5052369;28;20052;-77
2023/06/10 10:58:13;;;;;;;4.57;3.08;;;27.20;48.40;;;;;;5053975;28;20697;-76
2023/06/10 11:00:50;;;;;;;5.93;3.30;;;27.20;48.50;;;;;;5054242;28;20041;-76
2023/06/10 11:03:17;;;;;;;5.57;2.83;;;27.20;48.50;;;;;;5053750;28;20033;-76
2023/06/10 11:05:48;;;;;;;4.30;3.00;;;27.30;48.50;;;;;;5053565;28;20060;-77
2023/06/10 11:08:35;;;;;;;6.43;3.40;;;27.30;48.50;;;;;;5035785;28;20506;-77
2023/06/10 11:11:18;;;;;;;4.18;2.83;;;27.30;48.50;;;;;;5053717;28;20536;-76
2023/06/10 11:14:01;;;;;;;6.50;3.25;;;27.30;48.50;;;;;;5053704;28;20032;-76
2023/06/10 11:16:28;;;;;;;3.85;3.13;;;27.50;48.40;;;;;;5052246;28;20037;-77
2023/06/10 11:18:55;;;;;;;8.27;2.88;;;27.30;48.40;;;;;;5053586;28;20420;-75
2023/06/10 11:21:23;;;;;;;6.43;4.15;;;27.20;48.70;;;;;;5051470;28;20119;-75
2023/06/10 11:23:50;;;;;;;7.90;3.78;;;27.30;49.40;;;;;;5048427;28;20063;-76
2023/06/10 11:26:17;;;;;;;10.45;5.45;;;27.60;50.70;;;;;;5042094;28;20034;-75
2023/06/10 11:28:47;;;;;;;6.82;4.35;;;27.50;53.00;;;;;;5049538;28;20492;-75
2023/06/10 11:31:23;;;;;;;10.93;6.00;;;27.60;50.00;;;;;;5059050;28;20119;-74
2023/06/10 11:33:57;;;;;;;6.65;4.82;;;27.50;50.50;;;;;;5054774;28;20036;-72
2023/06/10 11:36:24;;;;;;;9.07;5.10;;;27.50;47.70;;;;;;5052367;28;20488;-75
2023/06/10 11:39:03;;;;;;;6.75;4.95;;;27.50;48.20;;;;;;5048736;28;20720;-75
2023/06/10 11:41:30;;;;;;;9.95;5.00;;;27.50;48.20;;;;;;5054720;28;20029;-76
2023/06/10 11:44:11;;;;;;;7.32;5.20;;;27.50;49.20;;;;;;5053956;28;20067;-74
2023/06/10 11:46:38;;;;;;;37.47;10.00;;;27.60;50.20;;;;;;5060598;28;20057;-74
2023/06/10 11:49:05;;;;;;;8.25;5.03;;;27.70;51.50;;;;;;5045658;28;20029;-74
2023/06/10 11:51:40;;;;;;;13.02;6.35;;;27.90;51.30;;;;;;5045925;28;20119;-75
2023/06/10 11:54:09;;;;;;;7.68;5.47;;;27.90;52.90;;;;;;5052441;28;20029;-73
2023/06/10 11:56:35;;;;;;;7.30;5.10;;;28.00;55.10;;;;;;5048086;28;20044;-73
2023/06/10 11:59:07;;;;;;;9.48;5.50;;;28.00;51.20;;;;;;5045787;28;20040;-74
2023/06/10 12:01:37;;;;;;;9.32;5.97;;;28.20;53.00;;;;;;5069821;28;20069;-74
2023/06/10 12:04:21;;;;;;;6.63;5.03;;;28.30;49.80;;;;;;5071876;28;20082;-73
2023/06/10 12:07:00;;;;;;;10.68;4.95;;;28.30;50.30;;;;;;5063532;28;20032;-74
2023/06/10 12:10:00;;;;;;;9.55;5.38;;;28.40;49.80;;;;;;5042102;28;20048;-74
2023/06/10 12:12:26;;;;;;;11.13;5.82;;;28.50;51.80;;;;;;5049848;28;20036;-72
2023/06/10 12:14:58;;;;;;;9.98;5.55;;;28.60;53.50;;;;;;5065454;28;20032;-75
2023/06/10 12:17:31;;;;;;;12.35;7.20;;;28.60;54.40;;;;;;5053894;28;20500;-74
2023/06/10 12:20:05;;;;;;;16.48;8.70;;;28.70;53.10;;;;;;5050814;28;20358;-73
2023/06/10 12:22:43;;;;;;;18.93;8.73;;;28.70;51.10;;;;;;5052990;28;20064;-75
2023/06/10 12:25:12;;;;;;;13.32;6.75;;;28.80;50.30;;;;;;5049272;28;20030;-75
2023/06/10 12:27:40;;;;;;;15.80;6.47;;;28.70;49.10;;;;;;5065600;28;20486;-77
2023/06/10 12:30:07;;;;;;;12.15;6.65;;;28.90;49.20;;;;;;5052914;28;20035;-78
2023/06/10 12:32:41;;;;;;;12.68;6.20;;;28.80;49.30;;;;;;5031996;28;20132;-77
2023/06/10 12:35:08;;;;;;;15.73;6.38;;;28.80;49.50;;;;;;5033230;28;20053;-76
2023/06/10 12:37:35;;;;;;;13.98;6.43;;;28.80;49.50;;;;;;5057578;28;20044;-77
2023/06/10 12:40:03;;;;;;;10.07;5.93;;;28.60;49.60;;;;;;5062658;28;20055;-78
2023/06/10 12:42:30;;;;;;;11.98;6.82;;;28.70;49.70;;;;;;5086536;28;20060;-77
2023/06/10 12:45:00;;;;;;;9.95;6.30;;;28.60;49.80;;;;;;5047834;28;20033;-76
2023/06/10 12:47:37;;;;;;;9.13;4.35;;;28.70;49.60;;;;;;5057781;28;20439;-78
2023/06/10 12:50:04;;;;;;;9.65;5.50;;;28.60;49.00;;;;;;5049816;28;20043;-77
2023/06/10 12:52:31;;;;;;;10.40;5.95;;;28.60;48.40;;;;;;5050043;28;20064;-79